Alden, NY

11:40 PM EST on December 24, 2014 (GMT -0500)
West Alden | Change Station
CLOSE
Current Station
Personal Weather Station
Location: Alden, NY
Elevation: 840 ft
Nearby Weather Stations

Elev 840 ft 42.89 °N, 78.53 °W | Updated 4 minutes ago

Rain
Rain
44.0 °F
Feels Like 39 °F
N
9.2
Wind Variable Wind from SW
Gusts 20.1 mph

Today
High -- | Low -- °F
--% Chance of Precip.
Yesterday
High -- | Low -- °F
Precip. -- in
7:43 AM 4:44 PM
Waxing Crescent, 13% visible
Pressure 29.36 in
Visibility 9.0 miles
Clouds Scattered Clouds 900 ft
Overcast 1700 ft
Windchill 39 °F
Dew Point 34 °F
Humidity 67%
Rainfall 0.00 in
Snow Depth Not available.
UV 0 out of 12
Pollen .10 out of 12
Air Quality Not available.
Flu Activity Not available.
SPECI KBUF 250432Z 24027G41KT 9SM -RA SCT009 OVC017 06/04 A2936 RMK AO2 PK WND 23042/0417 P0004 T00610044

More Conditions Fewer Conditions

Pressure 29.36 in
Visibility 9.0 miles
Clouds Scattered Clouds 900 ft
Overcast 1700 ft
Windchill 39 °F
Dew Point 34 °F
Humidity 67%
Rainfall 0.00 in
Snow Depth Not available.
UV 0 out of 12
Pollen .10 out of 12
Air Quality Not available.
Flu Activity Not available.
SPECI KBUF 250432Z 24027G41KT 9SM -RA SCT009 OVC017 06/04 A2936 RMK AO2 PK WND 23042/0417 P0004 T00610044

More Conditions Fewer Conditions

10-Day Weather Forecast

Almanac

Astronomy

Dec. 24, 2014 Rise Set
Actual Time
Civil Twilight
Nautical Twilight
Astronomical Twilight
Moon
Length of Visible Light
Length of Day
Tomorrow will be .
, % of the Moon is Illuminated

Today's Extremes

State Highs State Lows

Community

WunderPhotos

Upload Photos

1,780,238 photos uploaded!

WunderBlogs® & News

Nearby

Air Quality

  Air Quality AQ Index Pollutant
Not available.

Snow Depth

Station Depth Elevation

Earthquake Activity

City Distance Mag. Time & Date
Minimum magnitude displayed is 2.5.

Coastal Water Temperatures

Place Temperature

Nearby Weather Stations